createdAt,value
2022-08-26T00:01:54.529Z,87.76
2022-08-26T00:04:23.832Z,87.62
2022-08-26T00:06:51.468Z,88.41
2022-08-26T00:09:18.724Z,87.74
2022-08-26T00:11:46.506Z,88.45
2022-08-26T00:14:15.392Z,87.86
2022-08-26T00:16:47.136Z,87.80
2022-08-26T00:19:18.798Z,87.56
2022-08-26T00:21:48.729Z,87.51
2022-08-26T00:24:18.217Z,87.74
2022-08-26T00:26:45.414Z,87.70
2022-08-26T00:29:13.614Z,88.25
2022-08-26T00:31:42.445Z,88.31
2022-08-26T00:34:11.336Z,87.99
2022-08-26T00:36:40.761Z,87.94
2022-08-26T00:39:08.555Z,88.13
2022-08-26T00:41:39.192Z,88.15
2022-08-26T00:44:07.106Z,88.39
2022-08-26T00:46:37.194Z,88.52
2022-08-26T00:49:32.644Z,89.03
2022-08-26T00:52:03.522Z,89.37
2022-08-26T00:54:36.898Z,89.31
2022-08-26T00:57:16.424Z,89.11
2022-08-26T00:59:47.090Z,89.20
2022-08-26T01:02:20.808Z,88.99
2022-08-26T01:04:54.286Z,89.46
2022-08-26T01:07:25.229Z,89.23
2022-08-26T01:09:52.199Z,89.40
2022-08-26T01:12:21.978Z,89.15
2022-08-26T01:14:49.592Z,89.22
2022-08-26T01:17:17.318Z,89.31
2022-08-26T01:19:57.540Z,89.74
2022-08-26T01:22:34.518Z,89.78
2022-08-26T01:25:03.712Z,89.95
2022-08-26T01:27:32.910Z,90.22
2022-08-26T01:30:02.384Z,90.15
2022-08-26T01:32:31.959Z,90.29
2022-08-26T01:34:59.389Z,90.38
2022-08-26T01:37:32.663Z,90.76
2022-08-26T01:39:59.603Z,91.01
2022-08-26T01:42:27.505Z,91.18
2022-08-26T01:45:09.716Z,91.19
2022-08-26T01:47:38.510Z,91.23
2022-08-26T01:50:11.458Z,91.52
2022-08-26T01:52:41.470Z,91.34
2022-08-26T01:55:11.531Z,91.25
2022-08-26T01:57:39.401Z,91.55
2022-08-26T02:00:11.589Z,91.50
2022-08-26T02:02:45.277Z,91.88
2022-08-26T02:05:18.789Z,91.88
2022-08-26T02:07:48.025Z,92.52
2022-08-26T02:10:15.673Z,92.67
2022-08-26T02:12:43.741Z,92.71
2022-08-26T02:15:12.816Z,92.73
2022-08-26T02:17:46.096Z,92.91
2022-08-26T02:20:16.087Z,92.88
2022-08-26T02:22:45.137Z,92.85
2022-08-26T02:25:25.926Z,92.69
2022-08-26T02:27:53.389Z,92.51
2022-08-26T02:30:47.254Z,92.24
2022-08-26T02:33:14.760Z,92.54
2022-08-26T02:35:41.810Z,92.34
2022-08-26T02:38:11.254Z,92.30
2022-08-26T02:40:41.311Z,92.33
2022-08-26T02:43:09.731Z,92.39
2022-08-26T02:45:37.111Z,92.43
2022-08-26T02:48:21.334Z,92.29
2022-08-26T02:50:49.465Z,92.24
2022-08-26T02:53:16.805Z,91.71
2022-08-26T02:55:51.812Z,91.70
2022-08-26T02:58:18.933Z,91.45
2022-08-26T03:00:52.599Z,91.40
2022-08-26T03:03:20.834Z,91.48
2022-08-26T03:05:51.339Z,91.96
2022-08-26T03:08:18.199Z,92.34
2022-08-26T03:10:46.583Z,93.11
2022-08-26T03:13:15.024Z,93.23
2022-08-26T03:15:41.847Z,93.37
2022-08-26T03:18:09.730Z,93.43
2022-08-26T03:20:37.148Z,93.66
2022-08-26T03:23:04.057Z,94.07
2022-08-26T03:25:31.390Z,94.34
2022-08-26T03:27:59.415Z,94.64
2022-08-26T03:30:45.053Z,94.72
2022-08-26T03:33:13.994Z,94.92
2022-08-26T03:35:43.601Z,95.15
2022-08-26T03:38:11.307Z,95.04
2022-08-26T03:40:39.802Z,95.28
2022-08-26T03:43:09.610Z,95.30
2022-08-26T03:45:37.209Z,95.54
2022-08-26T03:48:05.483Z,95.83
2022-08-26T03:50:34.329Z,96.07
2022-08-26T03:53:04.098Z,96.00
2022-08-26T03:55:35.226Z,95.88
2022-08-26T03:58:02.298Z,96.56
2022-08-26T04:00:32.558Z,96.60
2022-08-26T04:03:01.400Z,96.42
2022-08-26T04:05:28.470Z,96.29
2022-08-26T04:07:55.395Z,96.30
2022-08-26T04:10:29.153Z,96.22
2022-08-26T04:12:58.835Z,96.09
2022-08-26T04:15:27.184Z,96.26
2022-08-26T04:17:56.049Z,96.24
2022-08-26T04:20:24.710Z,96.10
2022-08-26T04:22:52.467Z,96.05
2022-08-26T04:25:20.641Z,96.33
2022-08-26T04:27:48.281Z,96.53
2022-08-26T04:30:16.688Z,96.66
2022-08-26T04:32:44.209Z,96.43
2022-08-26T04:35:11.248Z,96.77
2022-08-26T04:37:38.216Z,96.46
2022-08-26T04:40:06.543Z,96.42
2022-08-26T04:42:33.447Z,96.31
2022-08-26T04:45:01.358Z,95.77
2022-08-26T04:47:32.609Z,95.47
2022-08-26T04:50:00.079Z,95.39
2022-08-26T04:52:29.071Z,95.75
2022-08-26T04:54:57.923Z,95.51
2022-08-26T04:57:24.748Z,95.29
2022-08-26T04:59:51.571Z,94.55
2022-08-26T05:02:19.533Z,94.07
2022-08-26T05:04:46.307Z,94.21
2022-08-26T05:07:13.179Z,94.58
2022-08-26T05:09:40.739Z,94.39
2022-08-26T05:12:08.068Z,94.19
2022-08-26T05:14:36.262Z,93.88
2022-08-26T05:17:03.801Z,93.23
2022-08-26T05:19:31.656Z,93.27
2022-08-26T05:21:59.668Z,92.74
2022-08-26T05:24:26.551Z,92.28
2022-08-26T05:26:54.403Z,91.84
2022-08-26T05:29:23.676Z,91.63
2022-08-26T05:31:52.512Z,90.75
2022-08-26T05:34:20.819Z,90.29
2022-08-26T05:36:48.004Z,89.70
2022-08-26T05:39:15.027Z,89.20
2022-08-26T05:41:44.786Z,88.93
2022-08-26T05:44:14.904Z,88.38
2022-08-26T05:46:44.783Z,87.80
2022-08-26T05:49:13.766Z,87.88
2022-08-26T05:51:42.143Z,87.20
2022-08-26T05:54:10.499Z,87.04
2022-08-26T05:56:38.639Z,86.63
2022-08-26T05:59:06.796Z,86.00
2022-08-26T06:01:43.264Z,84.87
2022-08-26T06:04:11.435Z,85.03
2022-08-26T06:06:41.661Z,84.40
2022-08-26T06:09:11.174Z,83.70
2022-08-26T06:11:38.996Z,83.37
2022-08-26T06:14:07.982Z,82.73
2022-08-26T06:16:38.728Z,82.18
2022-08-26T06:19:11.291Z,81.84
2022-08-26T06:21:41.272Z,80.75
2022-08-26T06:24:29.929Z,80.58
2022-08-26T06:27:01.236Z,80.68
2022-08-26T06:29:31.157Z,79.78
2022-08-26T06:31:58.675Z,79.52
2022-08-26T06:34:29.834Z,79.44
2022-08-26T06:36:59.883Z,79.24
2022-08-26T06:39:30.768Z,78.81
2022-08-26T06:42:02.665Z,78.89
2022-08-26T06:44:30.309Z,78.79
2022-08-26T06:46:57.364Z,78.46
2022-08-26T06:49:26.720Z,77.64
2022-08-26T06:51:59.571Z,76.53
2022-08-26T06:54:31.707Z,76.17
2022-08-26T06:56:59.347Z,74.88
2022-08-26T06:59:26.231Z,74.73
2022-08-26T07:01:54.802Z,73.50
2022-08-26T07:04:23.151Z,72.97
2022-08-26T07:06:52.730Z,73.17
2022-08-26T07:09:22.677Z,72.85
2022-08-26T07:11:51.439Z,72.76
2022-08-26T07:14:19.449Z,72.61
2022-08-26T07:16:52.247Z,70.91
2022-08-26T07:19:28.522Z,69.23
2022-08-26T07:21:57.810Z,69.72
2022-08-26T07:24:24.647Z,68.40
2022-08-26T07:26:59.655Z,67.26
2022-08-26T07:29:26.478Z,66.88
2022-08-26T07:31:53.709Z,68.05
2022-08-26T07:34:24.123Z,67.89
2022-08-26T07:36:51.704Z,65.14
2022-08-26T07:39:19.561Z,64.83
2022-08-26T07:41:47.400Z,63.79
2022-08-26T07:44:15.581Z,62.57
2022-08-26T07:46:44.293Z,59.53
2022-08-26T07:49:24.439Z,58.59
2022-08-26T07:51:54.155Z,59.38
2022-08-26T07:54:26.683Z,58.85
2022-08-26T07:56:54.674Z,57.72
2022-08-26T07:59:23.723Z,52.03
2022-08-26T08:01:51.009Z,54.66
2022-08-26T08:04:25.519Z,50.41
2022-08-26T08:06:54.092Z,50.82
2022-08-26T08:09:22.403Z,52.48
2022-08-26T08:11:50.014Z,50.80
2022-08-26T08:14:18.707Z,50.94
2022-08-26T08:16:51.174Z,50.24
2022-08-26T08:19:23.132Z,50.53
2022-08-26T08:21:50.906Z,50.31
2022-08-26T08:24:18.156Z,50.05
2022-08-26T08:26:46.091Z,49.33
2022-08-26T08:29:13.027Z,48.66
2022-08-26T08:31:58.499Z,46.60
2022-08-26T08:34:28.867Z,46.41
2022-08-26T08:36:57.531Z,45.31
2022-08-26T08:39:26.343Z,42.76
2022-08-26T08:42:28.509Z,43.67
2022-08-26T08:44:58.609Z,41.27
2022-08-26T08:47:36.933Z,42.51
2022-08-26T08:50:11.656Z,41.00
2022-08-26T08:52:44.000Z,37.71
2022-08-26T08:55:18.123Z,39.63
2022-08-26T08:57:49.332Z,39.63
2022-08-26T09:00:30.199Z,39.71
2022-08-26T09:03:03.574Z,38.79
2022-08-26T09:05:40.194Z,36.97
2022-08-26T09:08:23.239Z,37.51
2022-08-26T09:10:59.639Z,36.58
2022-08-26T09:13:28.482Z,37.19
2022-08-26T09:16:04.512Z,36.67
2022-08-26T09:18:56.418Z,35.98
2022-08-26T09:21:25.091Z,35.26
2022-08-26T09:23:55.730Z,36.47
2022-08-26T09:26:45.764Z,35.79
2022-08-26T09:29:30.898Z,35.78
2022-08-26T09:32:24.406Z,35.73
2022-08-26T09:34:57.352Z,34.79
2022-08-26T09:37:38.184Z,34.02
2022-08-26T09:40:19.386Z,34.33
2022-08-26T09:42:48.115Z,33.10
2022-08-26T09:45:15.587Z,34.10
2022-08-26T09:47:47.923Z,33.89
2022-08-26T09:50:36.466Z,33.40
2022-08-26T09:53:30.366Z,33.73
2022-08-26T09:56:23.941Z,34.00
2022-08-26T09:58:53.300Z,33.31
2022-08-26T10:01:23.139Z,33.35
2022-08-26T10:03:51.437Z,33.17
2022-08-26T10:06:21.189Z,33.34
2022-08-26T10:08:52.523Z,32.11
2022-08-26T10:11:47.631Z,31.95
2022-08-26T10:14:25.092Z,32.67
2022-08-26T10:17:09.246Z,31.28
2022-08-26T10:19:55.917Z,31.08
2022-08-26T10:22:34.711Z,31.51
2022-08-26T10:25:05.521Z,29.90
2022-08-26T10:28:20.118Z,29.90
2022-08-26T10:30:59.634Z,29.29
2022-08-26T10:33:26.711Z,29.21
2022-08-26T10:36:05.515Z,29.44
2022-08-26T10:38:37.933Z,29.56
2022-08-26T10:41:13.117Z,29.35
2022-08-26T10:43:51.667Z,29.27
2022-08-26T10:46:23.894Z,29.04
2022-08-26T10:49:10.641Z,29.45
2022-08-26T10:52:03.894Z,26.29
2022-08-26T10:54:54.962Z,27.10
2022-08-26T10:57:27.978Z,28.05
2022-08-26T11:00:31.388Z,27.94
2022-08-26T11:03:22.076Z,27.75
2022-08-26T11:06:24.880Z,26.30
2022-08-26T11:08:53.129Z,27.95
2022-08-26T11:11:41.219Z,27.13
2022-08-26T11:14:28.687Z,26.04
2022-08-26T11:17:00.195Z,26.28
2022-08-26T11:19:59.372Z,26.77
2022-08-26T11:22:31.230Z,26.50
2022-08-26T11:24:57.955Z,24.96
2022-08-26T11:27:36.715Z,25.02
2022-08-26T11:30:35.898Z,24.40
2022-08-26T11:33:02.875Z,24.45
2022-08-26T11:35:34.579Z,23.83
2022-08-26T11:38:25.213Z,25.43
2022-08-26T11:41:21.025Z,24.12
2022-08-26T11:43:50.456Z,23.91
2022-08-26T11:46:26.855Z,24.36
2022-08-26T11:49:01.784Z,23.56
2022-08-26T11:51:29.345Z,23.36
2022-08-26T11:54:13.807Z,23.03
2022-08-26T11:56:45.839Z,22.65
2022-08-26T11:59:18.848Z,22.97
2022-08-26T12:01:50.398Z,24.63
2022-08-26T12:04:33.419Z,23.86
2022-08-26T12:07:02.368Z,21.78
2022-08-26T12:09:35.986Z,23.23
2022-08-26T12:12:27.119Z,22.26
2022-08-26T12:15:19.037Z,21.13
2022-08-26T12:17:51.671Z,21.00
2022-08-26T12:20:31.280Z,21.12
2022-08-26T12:23:00.193Z,21.06
2022-08-26T12:25:28.133Z,21.82
2022-08-26T12:28:05.602Z,22.03
2022-08-26T12:30:32.510Z,21.03
2022-08-26T12:33:22.359Z,21.59
2022-08-26T12:35:54.786Z,21.96
2022-08-26T12:38:25.467Z,20.84
2022-08-26T12:40:54.072Z,21.05
2022-08-26T12:43:44.012Z,21.11
2022-08-26T12:46:18.154Z,21.82
2022-08-26T12:48:49.681Z,20.86
2022-08-26T12:51:28.378Z,19.72
2022-08-26T12:53:56.248Z,20.57
2022-08-26T12:56:31.155Z,20.96
2022-08-26T12:59:02.899Z,21.52
2022-08-26T13:01:40.713Z,18.60
2022-08-26T13:04:07.757Z,19.57
2022-08-26T13:06:35.105Z,20.64
2022-08-26T13:09:24.976Z,18.90
2022-08-26T13:11:54.639Z,19.38
2022-08-26T13:14:24.053Z,19.66
2022-08-26T13:16:51.891Z,18.91
2022-08-26T13:19:22.071Z,18.49
2022-08-26T13:21:53.019Z,18.62
2022-08-26T13:24:33.208Z,17.64
2022-08-26T13:27:01.475Z,17.53
2022-08-26T13:29:28.671Z,18.14
2022-08-26T13:31:55.927Z,17.61
2022-08-26T13:34:24.699Z,16.98
2022-08-26T13:36:54.256Z,17.58
2022-08-26T13:39:22.417Z,17.56
2022-08-26T13:41:49.708Z,18.59
2022-08-26T13:44:16.681Z,18.63
2022-08-26T13:49:15.700Z,20.33
2022-08-26T13:51:42.665Z,19.34
2022-08-26T13:54:09.612Z,18.67
2022-08-26T13:56:36.820Z,19.13
2022-08-26T13:59:04.614Z,20.01
2022-08-26T14:01:32.685Z,20.60
2022-08-26T14:03:59.626Z,20.82
2022-08-26T14:06:26.852Z,21.44
2022-08-26T14:08:53.795Z,21.70
2022-08-26T14:11:21.522Z,21.00
2022-08-26T14:13:48.496Z,21.15
2022-08-26T14:16:31.576Z,21.16
2022-08-26T14:19:01.362Z,21.47
2022-08-26T14:21:33.926Z,21.60
2022-08-26T14:24:01.186Z,21.20
2022-08-26T14:26:29.789Z,22.39
2022-08-26T14:28:59.858Z,23.77
2022-08-26T14:31:29.405Z,24.23
2022-08-26T14:34:03.821Z,24.63
2022-08-26T14:36:33.730Z,23.28
2022-08-26T14:39:12.609Z,22.23
2022-08-26T14:41:53.738Z,24.42
2022-08-26T14:44:25.943Z,24.45
2022-08-26T14:46:54.732Z,24.44
2022-08-26T14:49:24.466Z,24.56
2022-08-26T14:51:51.387Z,25.20
2022-08-26T14:54:19.896Z,24.17
2022-08-26T14:57:00.784Z,24.75
2022-08-26T14:59:35.268Z,26.09
2022-08-26T15:02:03.158Z,26.32
2022-08-26T15:04:30.157Z,27.01
2022-08-26T15:06:59.012Z,27.01
2022-08-26T15:09:27.627Z,25.78
2022-08-26T15:11:54.671Z,26.03
2022-08-26T15:14:22.807Z,25.42
2022-08-26T15:16:52.239Z,26.13
2022-08-26T15:19:20.397Z,26.22
2022-08-26T15:21:47.807Z,25.75
2022-08-26T15:24:16.647Z,25.86
2022-08-26T15:26:44.461Z,26.25
2022-08-26T15:29:11.512Z,26.55
2022-08-26T15:31:38.537Z,27.23
2022-08-26T15:34:10.190Z,28.20
2022-08-26T15:36:39.478Z,28.22
2022-08-26T15:39:07.969Z,28.14
2022-08-26T15:41:37.274Z,28.28
2022-08-26T15:44:06.781Z,28.04
2022-08-26T15:46:34.428Z,28.42
2022-08-26T15:49:02.551Z,28.45
2022-08-26T15:51:32.783Z,28.21
2022-08-26T15:54:01.626Z,29.07
2022-08-26T15:56:32.568Z,29.75
2022-08-26T15:59:02.243Z,29.55
2022-08-26T16:01:32.105Z,29.79
2022-08-26T16:03:59.667Z,30.33
2022-08-26T16:06:30.358Z,31.09
2022-08-26T16:08:57.820Z,31.22
2022-08-26T16:11:25.346Z,31.82
2022-08-26T16:13:52.544Z,31.73
2022-08-26T16:16:19.889Z,32.01
2022-08-26T16:18:47.604Z,32.31
2022-08-26T16:21:16.198Z,32.43
2022-08-26T16:23:45.290Z,32.62
2022-08-26T16:26:19.336Z,32.75
2022-08-26T16:28:46.914Z,33.33
2022-08-26T16:31:14.756Z,34.18
2022-08-26T16:33:41.977Z,34.89
2022-08-26T16:36:09.745Z,35.53
2022-08-26T16:38:37.721Z,36.17
2022-08-26T16:41:05.980Z,36.61
2022-08-26T16:43:33.154Z,36.77
2022-08-26T16:46:00.100Z,37.72
2022-08-26T16:48:27.557Z,38.34
2022-08-26T16:50:55.625Z,38.77
2022-08-26T16:53:23.347Z,39.75
2022-08-26T16:55:50.801Z,39.99
2022-08-26T16:58:18.660Z,40.82
2022-08-26T17:00:46.005Z,41.24
2022-08-26T17:03:13.084Z,40.98
2022-08-26T17:05:40.419Z,41.62
2022-08-26T17:08:07.878Z,42.01
2022-08-26T17:10:34.967Z,42.38
2022-08-26T17:13:02.645Z,43.32
2022-08-26T17:15:30.125Z,44.13
2022-08-26T17:17:57.486Z,44.47
2022-08-26T17:20:25.482Z,45.32
2022-08-26T17:22:53.957Z,45.97
2022-08-26T17:25:28.491Z,47.30
2022-08-26T17:30:27.071Z,48.59
2022-08-26T17:32:56.805Z,48.39
2022-08-26T17:35:23.763Z,49.67
2022-08-26T17:37:51.217Z,50.74
2022-08-26T17:40:21.620Z,51.00
2022-08-26T17:42:48.881Z,50.99
2022-08-26T17:45:16.334Z,51.43
2022-08-26T17:47:43.731Z,51.38
2022-08-26T17:50:14.522Z,51.54
2022-08-26T17:52:41.930Z,52.71
2022-08-26T17:55:10.493Z,53.17
2022-08-26T17:57:40.600Z,53.26
2022-08-26T18:00:13.019Z,54.18
2022-08-26T18:02:40.243Z,54.81
2022-08-26T18:05:08.712Z,55.27
2022-08-26T18:07:43.902Z,54.70
2022-08-26T18:10:13.837Z,54.79
2022-08-26T18:12:41.751Z,55.28
2022-08-26T18:15:10.691Z,55.90
2022-08-26T18:17:41.666Z,56.19
2022-08-26T18:20:15.252Z,56.69
2022-08-26T18:22:42.522Z,58.00
2022-08-26T18:25:09.703Z,57.83
2022-08-26T18:27:37.193Z,57.87
2022-08-26T18:30:15.878Z,58.88
2022-08-26T18:32:43.391Z,59.95
2022-08-26T18:35:11.546Z,59.95
2022-08-26T18:37:38.831Z,60.06
2022-08-26T18:40:08.155Z,60.13
2022-08-26T18:42:35.408Z,60.42
2022-08-26T18:45:03.322Z,60.68
2022-08-26T18:47:31.718Z,61.67
2022-08-26T18:49:58.655Z,62.03
2022-08-26T18:52:25.623Z,62.26
2022-08-26T18:54:52.743Z,62.78
2022-08-26T18:57:19.896Z,63.34
2022-08-26T18:59:46.799Z,63.14
2022-08-26T19:02:13.944Z,63.74
2022-08-26T19:04:41.034Z,65.11
2022-08-26T19:07:08.351Z,64.72
2022-08-26T19:09:36.236Z,64.71
2022-08-26T19:12:04.351Z,65.68
2022-08-26T19:14:32.773Z,65.90
2022-08-26T19:17:01.533Z,65.47
2022-08-26T19:19:29.057Z,65.93
2022-08-26T19:21:56.530Z,66.65
2022-08-26T19:24:26.018Z,66.74
2022-08-26T19:26:59.130Z,66.66
2022-08-26T19:29:30.239Z,65.83
2022-08-26T19:31:57.839Z,65.23
2022-08-26T19:34:25.241Z,65.00
2022-08-26T19:36:54.943Z,65.09
2022-08-26T19:39:22.123Z,65.96
2022-08-26T19:41:49.513Z,66.45
2022-08-26T19:44:37.557Z,66.13
2022-08-26T19:47:07.577Z,65.93
2022-08-26T19:49:35.336Z,66.63
2022-08-26T19:52:03.460Z,67.50
2022-08-26T19:54:30.738Z,67.05
2022-08-26T19:56:57.760Z,68.44
2022-08-26T19:59:24.922Z,67.94
2022-08-26T20:02:01.447Z,67.82
2022-08-26T20:04:38.187Z,68.11
2022-08-26T20:07:06.002Z,68.15
2022-08-26T20:09:48.304Z,67.88
2022-08-26T20:12:16.253Z,68.04
2022-08-26T20:14:46.286Z,67.82
2022-08-26T20:17:14.714Z,67.16
2022-08-26T20:20:00.527Z,67.26
2022-08-26T20:22:28.505Z,67.41
2022-08-26T20:24:55.827Z,66.50
2022-08-26T20:27:38.096Z,66.37
2022-08-26T20:30:07.740Z,66.56
2022-08-26T20:32:35.671Z,67.54
2022-08-26T20:35:04.371Z,66.26
2022-08-26T20:37:31.516Z,66.35
2022-08-26T20:39:58.836Z,65.98
2022-08-26T20:42:26.631Z,65.69
2022-08-26T20:44:54.587Z,65.64
2022-08-26T20:47:22.665Z,65.38
2022-08-26T20:49:52.234Z,65.46
2022-08-26T20:52:19.878Z,65.01
2022-08-26T20:54:46.801Z,66.19
2022-08-26T20:57:14.693Z,65.93
2022-08-26T20:59:41.623Z,65.18
2022-08-26T21:02:09.224Z,65.21
2022-08-26T21:04:36.102Z,65.14
2022-08-26T21:07:02.991Z,64.64
2022-08-26T21:09:30.094Z,64.78
2022-08-26T21:11:57.713Z,64.61
2022-08-26T21:14:25.691Z,64.37
2022-08-26T21:16:53.385Z,64.48
2022-08-26T21:19:20.390Z,64.31
2022-08-26T21:21:48.973Z,64.64
2022-08-26T21:24:16.959Z,64.85
2022-08-26T21:26:43.937Z,64.33
2022-08-26T21:29:10.953Z,64.29
2022-08-26T21:31:42.156Z,64.52
2022-08-26T21:34:12.669Z,65.00
2022-08-26T21:36:41.169Z,65.66
2022-08-26T21:39:11.801Z,65.80
2022-08-26T21:41:40.374Z,66.23
2022-08-26T21:44:07.729Z,66.41
2022-08-26T21:46:37.302Z,66.35
2022-08-26T21:49:08.611Z,66.16
2022-08-26T21:51:38.704Z,66.39
2022-08-26T21:54:10.776Z,66.66
2022-08-26T21:56:42.159Z,67.20
2022-08-26T21:59:09.473Z,67.75
2022-08-26T22:01:37.897Z,68.08
2022-08-26T22:04:07.564Z,68.44
2022-08-26T22:06:40.627Z,69.39
2022-08-26T22:09:07.777Z,69.32
2022-08-26T22:11:34.778Z,69.33
2022-08-26T22:14:01.697Z,69.84
2022-08-26T22:16:28.885Z,70.59
2022-08-26T22:18:56.001Z,70.98
2022-08-26T22:21:25.218Z,71.29
2022-08-26T22:23:58.017Z,71.57
2022-08-26T22:26:29.108Z,71.87
2022-08-26T22:28:58.959Z,71.90
2022-08-26T22:31:35.300Z,72.22
2022-08-26T22:34:11.070Z,72.38
2022-08-26T22:36:43.984Z,72.47
2022-08-26T22:39:17.222Z,73.07
2022-08-26T22:41:45.366Z,73.07
2022-08-26T22:44:12.576Z,73.18
2022-08-26T22:46:40.631Z,73.67
2022-08-26T22:49:09.728Z,74.43
2022-08-26T22:51:36.765Z,74.86
2022-08-26T22:54:03.906Z,74.79
2022-08-26T22:56:30.719Z,75.08
2022-08-26T22:58:57.709Z,75.84
2022-08-26T23:01:24.566Z,75.81
2022-08-26T23:03:51.440Z,76.21
2022-08-26T23:06:18.277Z,75.92
2022-08-26T23:08:46.470Z,76.48
2022-08-26T23:11:14.945Z,76.54
2022-08-26T23:13:42.473Z,77.26
2022-08-26T23:16:11.372Z,77.44
2022-08-26T23:18:39.136Z,78.38
2022-08-26T23:21:06.599Z,78.67
2022-08-26T23:23:33.702Z,78.51
2022-08-26T23:26:03.333Z,78.79
2022-08-26T23:28:33.004Z,78.47
2022-08-26T23:31:00.233Z,78.54
2022-08-26T23:33:47.155Z,78.91
2022-08-26T23:36:17.871Z,79.63
2022-08-26T23:38:52.361Z,79.53
2022-08-26T23:41:22.484Z,80.01
2022-08-26T23:43:50.053Z,80.31
2022-08-26T23:46:17.687Z,80.26
2022-08-26T23:48:44.696Z,79.61
2022-08-26T23:51:30.191Z,80.01
2022-08-26T23:53:59.534Z,80.41
2022-08-26T23:56:26.851Z,81.04
2022-08-26T23:58:54.212Z,80.92
